createdAt,value
2018-07-16T00:00:20.625Z,1.10
2018-07-16T00:02:49.058Z,1.33
2018-07-16T00:05:17.506Z,1.60
2018-07-16T00:07:45.997Z,1.40
2018-07-16T00:10:14.371Z,1.20
2018-07-16T00:12:42.740Z,1.17
2018-07-16T00:15:11.093Z,1.30
2018-07-16T00:17:39.478Z,1.10
2018-07-16T00:20:08.353Z,1.20
2018-07-16T00:22:36.774Z,1.10
2018-07-16T00:25:05.113Z,1.40
2018-07-16T00:27:33.525Z,1.47
2018-07-16T00:30:01.916Z,1.60
2018-07-16T00:32:30.289Z,1.07
2018-07-16T00:34:58.685Z,1.00
2018-07-16T00:37:27.066Z,1.03
2018-07-16T00:39:55.411Z,1.10
2018-07-16T00:42:24.153Z,1.30
2018-07-16T00:44:52.577Z,1.37
2018-07-16T00:47:20.929Z,1.40
2018-07-16T00:49:49.293Z,1.33
2018-07-16T00:52:17.658Z,0.97
2018-07-16T00:54:46.094Z,1.43
2018-07-16T00:57:14.809Z,1.60
2018-07-16T00:59:43.193Z,1.30
2018-07-16T01:02:11.774Z,1.07
2018-07-16T01:04:40.142Z,1.80
2018-07-16T01:07:08.481Z,1.30
2018-07-16T01:09:36.870Z,1.10
2018-07-16T01:12:05.249Z,1.60
2018-07-16T01:14:33.621Z,1.10
2018-07-16T01:17:02.098Z,1.17
2018-07-16T01:19:30.477Z,1.40
2018-07-16T01:21:58.889Z,1.30
2018-07-16T01:24:27.249Z,1.23
2018-07-16T01:26:55.615Z,1.40
2018-07-16T01:29:23.973Z,1.20
2018-07-16T01:31:52.334Z,1.60
2018-07-16T01:34:20.706Z,1.10
2018-07-16T01:36:49.061Z,1.30
2018-07-16T01:39:17.445Z,1.20
2018-07-16T01:41:45.806Z,1.63
2018-07-16T01:44:14.177Z,1.43
2018-07-16T01:46:42.537Z,1.53
2018-07-16T01:49:10.906Z,1.40
2018-07-16T01:51:39.262Z,1.10
2018-07-16T01:54:07.706Z,1.20
2018-07-16T01:56:36.093Z,1.50
2018-07-16T01:59:04.520Z,1.10
2018-07-16T02:01:32.885Z,1.47
2018-07-16T02:04:01.290Z,1.50
2018-07-16T02:06:29.657Z,1.50
2018-07-16T02:08:58.101Z,1.50
2018-07-16T02:11:26.486Z,1.87
2018-07-16T02:13:54.977Z,1.73
2018-07-16T02:16:23.341Z,1.80
2018-07-16T02:18:51.730Z,2.00
2018-07-16T02:21:20.122Z,1.50
2018-07-16T02:23:48.526Z,1.60
2018-07-16T02:26:16.890Z,1.40
2018-07-16T02:28:45.278Z,1.27
2018-07-16T02:31:13.641Z,1.67
2018-07-16T02:33:42.014Z,1.50
2018-07-16T02:36:10.389Z,1.90
2018-07-16T02:38:38.789Z,1.70
2018-07-16T02:41:07.165Z,1.90
2018-07-16T02:43:35.573Z,1.70
2018-07-16T02:46:04.025Z,1.30
2018-07-16T02:48:32.390Z,1.37
2018-07-16T02:51:00.782Z,1.67
2018-07-16T02:53:29.174Z,2.50
2018-07-16T02:55:57.558Z,1.87
2018-07-16T02:58:25.914Z,1.57
2018-07-16T03:00:54.290Z,1.70
2018-07-16T03:03:22.654Z,1.30
2018-07-16T03:05:51.029Z,1.77
2018-07-16T03:08:19.407Z,1.70
2018-07-16T03:10:47.789Z,1.40
2018-07-16T03:13:16.367Z,1.60
2018-07-16T03:15:44.730Z,1.77
2018-07-16T03:18:13.170Z,1.50
2018-07-16T03:20:41.496Z,1.70
2018-07-16T03:23:09.863Z,1.57
2018-07-16T03:25:38.262Z,1.60
2018-07-16T03:28:06.620Z,1.50
2018-07-16T03:30:34.985Z,1.60
2018-07-16T03:33:03.336Z,1.80
2018-07-16T03:35:31.694Z,2.17
2018-07-16T03:38:00.043Z,1.50
2018-07-16T03:40:28.433Z,1.70
2018-07-16T03:42:56.805Z,1.50
2018-07-16T03:45:25.193Z,1.60
2018-07-16T03:47:53.617Z,1.53
2018-07-16T03:50:21.970Z,1.50
2018-07-16T03:52:50.838Z,1.60
2018-07-16T03:55:19.533Z,1.63
2018-07-16T03:57:47.894Z,1.87
2018-07-16T04:00:16.290Z,1.60
2018-07-16T04:02:44.670Z,1.70
2018-07-16T04:05:13.060Z,1.70
2018-07-16T04:07:41.409Z,1.70
2018-07-16T04:10:10.139Z,1.53
2018-07-16T04:12:38.529Z,1.80
2018-07-16T04:15:07.099Z,1.60
2018-07-16T04:17:35.478Z,1.70
2018-07-16T04:20:03.890Z,1.50
2018-07-16T04:22:32.246Z,1.60
2018-07-16T04:25:00.641Z,1.93
2018-07-16T04:27:29.018Z,1.60
2018-07-16T04:29:57.204Z,1.80
2018-07-16T04:32:25.554Z,2.10
2018-07-16T04:34:53.975Z,2.30
2018-07-16T04:37:22.393Z,2.47
2018-07-16T04:39:50.812Z,1.70
2018-07-16T04:42:19.149Z,1.83
2018-07-16T04:44:47.511Z,2.03
2018-07-16T04:47:15.908Z,1.50
2018-07-16T04:49:44.285Z,1.87
2018-07-16T04:52:12.642Z,1.80
2018-07-16T04:54:40.721Z,2.23
2018-07-16T04:57:09.343Z,2.07
2018-07-16T04:59:37.713Z,2.20
2018-07-16T05:02:06.129Z,1.87
2018-07-16T05:04:34.492Z,1.70
2018-07-16T05:07:02.883Z,1.70
2018-07-16T05:09:31.249Z,1.80
2018-07-16T05:11:59.645Z,1.70
2018-07-16T05:14:28.022Z,2.13
2018-07-16T05:16:56.442Z,2.03
2018-07-16T05:19:24.899Z,1.90
2018-07-16T05:21:53.294Z,1.70
2018-07-16T05:24:21.922Z,1.77
2018-07-16T05:26:50.323Z,2.07
2018-07-16T05:29:18.694Z,1.67
2018-07-16T05:31:47.095Z,1.70
2018-07-16T05:34:15.549Z,1.83
2018-07-16T05:36:43.939Z,2.00
2018-07-16T05:39:12.318Z,1.50
2018-07-16T05:41:40.726Z,1.70
2018-07-16T05:44:09.091Z,1.63
2018-07-16T05:46:37.469Z,1.70
2018-07-16T05:49:05.830Z,1.57
2018-07-16T05:51:34.286Z,1.50
2018-07-16T05:54:02.711Z,1.53
2018-07-16T05:56:31.150Z,1.73
2018-07-16T05:58:59.513Z,1.50
2018-07-16T06:01:27.970Z,1.53
2018-07-16T06:03:56.340Z,1.80
2018-07-16T06:06:24.697Z,1.63
2018-07-16T06:08:53.139Z,1.60
2018-07-16T06:11:21.498Z,1.97
2018-07-16T06:13:49.897Z,1.90
2018-07-16T06:16:18.413Z,1.90
2018-07-16T06:18:46.918Z,1.67
2018-07-16T06:21:15.349Z,1.70
2018-07-16T06:23:43.737Z,5.30
2018-07-16T06:26:12.118Z,2.30
2018-07-16T06:28:40.506Z,1.77
2018-07-16T06:31:08.902Z,1.80
2018-07-16T06:33:37.561Z,1.63
2018-07-16T06:36:06.361Z,1.60
2018-07-16T06:38:34.869Z,1.90
2018-07-16T06:41:03.574Z,1.97
2018-07-16T06:43:31.833Z,1.60
2018-07-16T06:46:00.211Z,1.60
2018-07-16T06:48:28.597Z,1.90
2018-07-16T06:50:57.093Z,1.90
2018-07-16T06:53:25.482Z,1.77
2018-07-16T06:55:53.843Z,1.90
2018-07-16T06:58:22.213Z,1.50
2018-07-16T07:00:50.562Z,1.70
2018-07-16T07:03:18.942Z,1.73
2018-07-16T07:05:47.305Z,1.57
2018-07-16T07:08:15.830Z,1.50
2018-07-16T07:10:44.190Z,1.70
2018-07-16T07:13:12.570Z,1.90
2018-07-16T07:15:40.945Z,1.70
2018-07-16T07:18:09.454Z,1.57
2018-07-16T07:20:37.761Z,1.73
2018-07-16T07:23:06.782Z,1.67
2018-07-16T07:25:35.282Z,1.87
2018-07-16T07:28:03.707Z,1.50
2018-07-16T07:30:32.074Z,1.40
2018-07-16T07:33:00.445Z,1.90
2018-07-16T07:35:29.065Z,1.87
2018-07-16T07:37:57.496Z,1.70
2018-07-16T07:40:25.885Z,1.60
2018-07-16T07:42:54.277Z,1.87
2018-07-16T07:45:22.621Z,2.00
2018-07-16T07:47:51.008Z,1.80
2018-07-16T07:50:19.389Z,1.63
2018-07-16T07:52:47.798Z,1.83
2018-07-16T07:55:16.606Z,1.90
2018-07-16T07:57:44.648Z,1.93
2018-07-16T08:00:13.045Z,2.00
2018-07-16T08:02:41.490Z,2.27
2018-07-16T08:05:09.925Z,2.07
2018-07-16T08:07:38.345Z,1.70
2018-07-16T08:10:06.765Z,1.70
2018-07-16T08:12:35.178Z,2.10
2018-07-16T08:15:03.594Z,1.97
2018-07-16T08:17:32.021Z,2.00
2018-07-16T08:20:01.346Z,2.07
2018-07-16T08:22:29.761Z,2.40
2018-07-16T08:24:58.186Z,2.10
2018-07-16T08:27:26.597Z,2.30
2018-07-16T08:29:55.017Z,2.00
2018-07-16T08:32:23.429Z,2.00
2018-07-16T08:34:51.834Z,2.27
2018-07-16T08:37:20.228Z,2.33
2018-07-16T08:39:48.678Z,1.80
2018-07-16T08:42:17.141Z,1.97
2018-07-16T08:44:46.710Z,2.00
2018-07-16T08:47:15.106Z,2.00
2018-07-16T08:49:43.743Z,2.13
2018-07-16T08:52:12.221Z,1.90
2018-07-16T08:54:40.646Z,2.20
2018-07-16T08:57:09.242Z,2.00
2018-07-16T08:59:37.720Z,1.80
2018-07-16T09:02:06.328Z,2.00
2018-07-16T09:04:34.705Z,2.03
2018-07-16T09:07:03.133Z,2.30
2018-07-16T09:09:31.468Z,2.10
2018-07-16T09:11:59.877Z,2.00
2018-07-16T09:14:28.245Z,2.00
2018-07-16T09:16:56.697Z,2.27
2018-07-16T09:19:25.017Z,2.03
2018-07-16T09:21:53.657Z,2.33
2018-07-16T09:24:22.066Z,2.50
2018-07-16T09:26:50.467Z,2.10
2018-07-16T09:29:18.826Z,2.50
2018-07-16T09:31:47.313Z,1.90
2018-07-16T09:34:15.946Z,1.77
2018-07-16T09:36:44.484Z,2.13
2018-07-16T09:39:12.986Z,1.60
2018-07-16T09:41:41.364Z,2.03
2018-07-16T09:44:09.817Z,2.30
2018-07-16T09:46:38.521Z,1.97
2018-07-16T09:49:07.635Z,2.10
2018-07-16T09:51:36.251Z,2.03
2018-07-16T09:54:04.678Z,2.20
2018-07-16T09:56:33.108Z,2.20
2018-07-16T09:59:01.442Z,2.50
2018-07-16T10:01:35.360Z,1.90
2018-07-16T10:04:03.757Z,1.97
2018-07-16T10:06:32.118Z,2.20
2018-07-16T10:09:00.501Z,2.07
2018-07-16T10:11:28.566Z,1.90
2018-07-16T10:13:56.931Z,1.90
2018-07-16T10:16:25.564Z,2.00
2018-07-16T10:18:53.913Z,1.90
2018-07-16T10:21:22.307Z,2.20
2018-07-16T10:23:50.882Z,2.10
2018-07-16T10:26:19.249Z,1.97
2018-07-16T10:28:47.701Z,2.00
2018-07-16T10:31:16.098Z,2.17
2018-07-16T10:33:44.561Z,1.80
2018-07-16T10:36:13.013Z,1.90
2018-07-16T10:38:41.361Z,2.00
2018-07-16T10:41:09.757Z,1.73
2018-07-16T10:43:38.182Z,2.17
2018-07-16T10:46:06.549Z,1.90
2018-07-16T10:48:35.110Z,2.00
2018-07-16T10:51:03.548Z,2.43
2018-07-16T10:53:31.937Z,2.10
2018-07-16T10:56:00.885Z,2.10
2018-07-16T10:58:29.266Z,2.30
2018-07-16T11:00:57.638Z,2.13
2018-07-16T11:03:26.038Z,2.10
2018-07-16T11:05:54.558Z,2.03
2018-07-16T11:08:22.925Z,1.93
2018-07-16T11:10:51.301Z,2.00
2018-07-16T11:13:19.685Z,2.33
2018-07-16T11:15:48.158Z,2.30
2018-07-16T11:18:17.007Z,2.00
2018-07-16T11:20:45.402Z,2.07
2018-07-16T11:23:13.753Z,2.10
2018-07-16T11:25:46.504Z,2.40
2018-07-16T11:28:14.968Z,2.20
2018-07-16T11:30:43.367Z,2.40
2018-07-16T11:33:11.710Z,2.10
2018-07-16T11:35:40.107Z,2.17
2018-07-16T11:38:08.486Z,2.33
2018-07-16T11:40:36.949Z,2.10
2018-07-16T11:43:05.438Z,2.40
2018-07-16T11:45:33.856Z,2.40
2018-07-16T11:48:02.610Z,2.57
2018-07-16T11:50:31.008Z,2.33
2018-07-16T11:52:59.354Z,2.10
2018-07-16T11:55:27.754Z,2.20
2018-07-16T11:57:56.119Z,1.83
2018-07-16T12:00:24.538Z,2.20
2018-07-16T12:02:52.901Z,2.00
2018-07-16T12:05:21.300Z,2.07
2018-07-16T12:07:49.694Z,2.00
2018-07-16T12:10:18.102Z,1.87
2018-07-16T12:12:46.570Z,2.10
2018-07-16T12:15:14.917Z,2.20
2018-07-16T12:17:43.343Z,1.93
2018-07-16T12:20:11.726Z,2.03
2018-07-16T12:22:40.086Z,1.80
2018-07-16T12:25:08.853Z,2.00
2018-07-16T12:27:37.583Z,2.27
2018-07-16T12:30:06.738Z,2.43
2018-07-16T12:32:35.155Z,2.00
2018-07-16T12:35:03.574Z,1.83
2018-07-16T12:37:31.964Z,1.90
2018-07-16T12:40:00.406Z,1.93
2018-07-16T12:42:29.061Z,2.30
2018-07-16T12:44:57.702Z,2.20
2018-07-16T12:47:26.443Z,1.90
2018-07-16T12:49:55.035Z,2.40
2018-07-16T12:52:23.449Z,2.37
2018-07-16T12:54:51.862Z,2.40
2018-07-16T12:57:20.298Z,2.20
2018-07-16T12:59:48.730Z,2.70
2018-07-16T13:02:17.126Z,2.50
2018-07-16T13:04:45.505Z,2.47
2018-07-16T13:07:14.058Z,2.23
2018-07-16T13:09:42.448Z,1.80
2018-07-16T13:12:10.865Z,1.90
2018-07-16T13:14:39.449Z,1.70
2018-07-16T13:17:08.489Z,2.03
2018-07-16T13:19:37.386Z,1.90
2018-07-16T13:22:05.864Z,2.07
2018-07-16T13:24:34.465Z,2.03
2018-07-16T13:27:02.859Z,2.00
2018-07-16T13:29:31.765Z,2.17
2018-07-16T13:32:00.708Z,1.97
2018-07-16T13:34:29.355Z,2.00
2018-07-16T13:36:57.773Z,1.87
2018-07-16T13:39:26.521Z,1.90
2018-07-16T13:41:55.253Z,1.90
2018-07-16T13:44:23.680Z,1.50
2018-07-16T13:46:52.126Z,1.70
2018-07-16T13:49:20.494Z,1.83
2018-07-16T13:51:48.903Z,1.83
2018-07-16T13:54:17.965Z,1.60
2018-07-16T13:56:47.186Z,1.80
2018-07-16T13:59:15.650Z,1.80
2018-07-16T14:01:44.050Z,1.87
2018-07-16T14:04:12.464Z,1.47
2018-07-16T14:06:40.892Z,2.00
2018-07-16T14:09:09.709Z,2.00
2018-07-16T14:11:38.468Z,1.73
2018-07-16T14:14:06.933Z,2.00
2018-07-16T14:16:35.497Z,1.80
2018-07-16T14:19:03.907Z,1.53
2018-07-16T14:21:32.314Z,1.83
2018-07-16T14:24:00.757Z,1.80
2018-07-16T14:26:29.397Z,1.83
2018-07-16T14:28:57.818Z,1.60
2018-07-16T14:31:26.222Z,1.60
2018-07-16T14:33:54.593Z,2.00
2018-07-16T14:36:22.954Z,1.90
2018-07-16T14:38:51.353Z,1.40
2018-07-16T14:41:19.729Z,1.93
2018-07-16T14:43:48.129Z,2.10
2018-07-16T14:46:16.553Z,2.00
2018-07-16T14:48:44.957Z,2.10
2018-07-16T14:51:13.610Z,2.10
2018-07-16T14:53:42.338Z,2.00
2018-07-16T14:56:10.742Z,1.83
2018-07-16T14:58:39.125Z,2.00
2018-07-16T15:01:07.771Z,2.10
2018-07-16T15:03:36.209Z,1.70
2018-07-16T15:06:04.602Z,1.63
2018-07-16T15:08:33.003Z,1.90
2018-07-16T15:11:01.495Z,2.43
2018-07-16T15:13:30.050Z,1.90
2018-07-16T15:15:58.649Z,2.00
2018-07-16T15:18:27.863Z,1.93
2018-07-16T15:20:56.900Z,2.37
2018-07-16T15:23:25.205Z,2.30
2018-07-16T15:25:53.729Z,2.00
2018-07-16T15:28:22.414Z,2.13
2018-07-16T15:30:51.079Z,2.63
2018-07-16T15:33:19.649Z,2.20
2018-07-16T15:35:48.466Z,1.93
2018-07-16T15:38:17.581Z,1.77
2018-07-16T15:40:46.473Z,1.90
2018-07-16T15:43:15.032Z,1.80
2018-07-16T15:45:43.481Z,1.73
2018-07-16T15:48:11.569Z,2.20
2018-07-16T15:50:40.039Z,1.90
2018-07-16T15:53:08.981Z,2.27
2018-07-16T15:55:37.770Z,1.93
2018-07-16T15:58:06.646Z,2.20
2018-07-16T16:00:35.251Z,1.93
2018-07-16T16:03:03.650Z,2.10
2018-07-16T16:05:32.045Z,2.07
2018-07-16T16:08:00.481Z,2.03
2018-07-16T16:10:29.305Z,1.93
2018-07-16T16:12:58.081Z,2.43
2018-07-16T16:15:26.445Z,2.17
2018-07-16T16:17:54.886Z,2.20
2018-07-16T16:20:23.258Z,2.03
2018-07-16T16:22:51.634Z,2.10
2018-07-16T16:25:20.223Z,2.20
2018-07-16T16:27:48.794Z,2.20
2018-07-16T16:30:17.729Z,2.27
2018-07-16T16:32:46.732Z,2.50
2018-07-16T16:35:15.083Z,2.40
2018-07-16T16:37:44.067Z,2.40
2018-07-16T16:40:12.474Z,2.07
2018-07-16T16:42:40.931Z,2.17
2018-07-16T16:45:09.285Z,2.30
2018-07-16T16:47:37.634Z,2.23
2018-07-16T16:50:06.030Z,2.40
2018-07-16T16:52:34.394Z,1.83
2018-07-16T16:55:02.854Z,1.97
2018-07-16T16:57:31.409Z,2.03
2018-07-16T16:59:59.805Z,2.57
2018-07-16T17:02:28.254Z,2.23
2018-07-16T17:04:56.646Z,1.80
2018-07-16T17:07:25.014Z,2.20
2018-07-16T17:09:53.433Z,2.40
2018-07-16T17:12:21.847Z,2.03
2018-07-16T17:14:50.243Z,1.83
2018-07-16T17:17:18.629Z,2.20
2018-07-16T17:19:47.106Z,2.03
2018-07-16T17:22:15.502Z,1.80
2018-07-16T17:24:45.142Z,2.03
2018-07-16T17:27:13.508Z,1.60
2018-07-16T17:29:42.058Z,1.83
2018-07-16T17:32:10.469Z,1.87
2018-07-16T17:34:39.477Z,1.90
2018-07-16T17:37:08.177Z,1.90
2018-07-16T17:39:36.592Z,2.20
2018-07-16T17:42:05.123Z,2.00
2018-07-16T17:44:33.522Z,1.70
2018-07-16T17:47:01.907Z,1.70
2018-07-16T17:49:30.359Z,1.70
2018-07-16T17:51:58.861Z,2.33
2018-07-16T17:54:27.289Z,2.20
2018-07-16T17:56:55.682Z,1.97
2018-07-16T17:59:24.106Z,2.00
2018-07-16T18:01:52.487Z,1.90
2018-07-16T18:04:20.869Z,1.93
2018-07-16T18:06:49.266Z,2.10
2018-07-16T18:09:17.633Z,1.97
2018-07-16T18:11:46.038Z,1.70
2018-07-16T18:14:14.401Z,1.70
2018-07-16T18:16:42.761Z,1.83
2018-07-16T18:19:11.161Z,1.53
2018-07-16T18:21:39.609Z,1.70
2018-07-16T18:24:08.021Z,1.70
2018-07-16T18:26:36.375Z,2.27
2018-07-16T18:29:04.829Z,1.70
2018-07-16T18:31:33.207Z,2.40
2018-07-16T18:34:01.573Z,6.67
2018-07-16T18:36:29.925Z,2.07
2018-07-16T18:38:58.314Z,2.07
2018-07-16T18:41:26.726Z,1.70
2018-07-16T18:43:55.350Z,2.30
2018-07-16T18:46:23.405Z,1.47
2018-07-16T18:48:51.852Z,1.60
2018-07-16T18:51:20.218Z,1.90
2018-07-16T18:53:48.569Z,1.93
2018-07-16T18:56:17.049Z,1.83
2018-07-16T18:58:45.605Z,1.97
2018-07-16T19:01:14.054Z,2.20
2018-07-16T19:03:42.445Z,1.70
2018-07-16T19:06:10.886Z,1.87
2018-07-16T19:08:39.314Z,1.93
2018-07-16T19:11:07.747Z,1.60
2018-07-16T19:13:36.128Z,2.00
2018-07-16T19:16:04.570Z,2.00
2018-07-16T19:18:32.972Z,2.00
2018-07-16T19:21:01.378Z,1.83
2018-07-16T19:23:29.750Z,1.90
2018-07-16T19:25:58.169Z,1.93
2018-07-16T19:28:26.660Z,2.07
2018-07-16T19:30:55.189Z,1.70
2018-07-16T19:33:23.556Z,1.60
2018-07-16T19:35:51.985Z,2.10
2018-07-16T19:38:20.417Z,2.07
2018-07-16T19:40:49.070Z,2.37
2018-07-16T19:43:17.457Z,1.83
2018-07-16T19:45:45.896Z,2.20
2018-07-16T19:48:14.345Z,1.80
2018-07-16T19:50:42.733Z,1.90
2018-07-16T19:53:11.122Z,2.17
2018-07-16T19:55:39.578Z,2.13
2018-07-16T19:58:08.012Z,2.20
2018-07-16T20:00:36.466Z,2.83
2018-07-16T20:03:05.429Z,3.03
2018-07-16T20:05:33.819Z,3.03
2018-07-16T20:08:02.215Z,2.50
2018-07-16T20:10:30.678Z,2.20
2018-07-16T20:12:59.105Z,2.20
2018-07-16T20:15:27.526Z,2.10
2018-07-16T20:17:55.909Z,2.03
2018-07-16T20:20:24.355Z,2.53
2018-07-16T20:22:52.722Z,2.60
2018-07-16T20:25:21.211Z,2.60
2018-07-16T20:27:49.647Z,2.67
2018-07-16T20:30:18.045Z,3.17
2018-07-16T20:32:46.543Z,2.60
2018-07-16T20:35:14.990Z,2.90
2018-07-16T20:37:43.367Z,2.20
2018-07-16T20:40:11.769Z,2.50
2018-07-16T20:42:40.153Z,2.27
2018-07-16T20:45:08.542Z,2.50
2018-07-16T20:47:36.921Z,2.73
2018-07-16T20:50:05.710Z,2.03
2018-07-16T20:52:34.122Z,2.60
2018-07-16T20:55:02.497Z,2.27
2018-07-16T20:57:30.898Z,2.47
2018-07-16T20:59:59.248Z,2.70
2018-07-16T21:02:27.629Z,2.47
2018-07-16T21:04:55.995Z,2.30
2018-07-16T21:07:24.377Z,2.80
2018-07-16T21:09:52.746Z,2.67
2018-07-16T21:12:21.142Z,2.40
2018-07-16T21:14:49.525Z,2.67
2018-07-16T21:17:17.956Z,2.40
2018-07-16T21:19:46.289Z,2.27
2018-07-16T21:22:14.665Z,2.20
2018-07-16T21:24:43.029Z,2.33
2018-07-16T21:27:11.430Z,2.23
2018-07-16T21:29:39.797Z,2.73
2018-07-16T21:32:08.193Z,2.50
2018-07-16T21:34:36.574Z,2.50
2018-07-16T21:37:04.981Z,2.57
2018-07-16T21:39:33.362Z,2.37
2018-07-16T21:42:01.750Z,2.53
2018-07-16T21:44:30.110Z,2.80
2018-07-16T21:46:58.547Z,2.40
2018-07-16T21:49:26.898Z,3.00
2018-07-16T21:51:55.286Z,2.90
2018-07-16T21:54:23.658Z,2.67
2018-07-16T21:56:52.047Z,2.73
2018-07-16T21:59:20.452Z,2.53
2018-07-16T22:01:48.873Z,2.80
2018-07-16T22:04:17.322Z,2.90
2018-07-16T22:06:45.709Z,2.67
2018-07-16T22:09:14.060Z,2.93
2018-07-16T22:11:42.461Z,3.17
2018-07-16T22:14:10.833Z,3.00
2018-07-16T22:16:39.227Z,2.60
2018-07-16T22:19:07.570Z,2.97
2018-07-16T22:21:35.999Z,2.57
2018-07-16T22:24:04.382Z,2.77
2018-07-16T22:26:32.762Z,2.50
2018-07-16T22:29:01.146Z,2.50
2018-07-16T22:31:29.522Z,2.37
2018-07-16T22:33:57.881Z,2.30
2018-07-16T22:36:26.254Z,2.77
2018-07-16T22:38:54.630Z,2.50
2018-07-16T22:41:22.994Z,2.57
2018-07-16T22:43:51.349Z,3.17
2018-07-16T22:46:19.737Z,2.83
2018-07-16T22:48:48.197Z,3.40
2018-07-16T22:51:16.831Z,2.40
2018-07-16T22:53:45.226Z,3.00
2018-07-16T22:56:13.605Z,2.47
2018-07-16T22:58:42.016Z,2.47
2018-07-16T23:01:10.405Z,2.53
2018-07-16T23:03:38.827Z,3.10
2018-07-16T23:06:07.221Z,3.00
2018-07-16T23:08:35.601Z,2.90
2018-07-16T23:11:04.015Z,2.50
2018-07-16T23:13:32.398Z,2.70
2018-07-16T23:16:00.766Z,2.37
2018-07-16T23:18:29.177Z,2.50
2018-07-16T23:20:57.637Z,2.70
2018-07-16T23:23:26.026Z,3.00
2018-07-16T23:25:54.402Z,3.00
2018-07-16T23:28:22.802Z,3.00
2018-07-16T23:30:51.162Z,2.63
2018-07-16T23:33:19.622Z,2.87
2018-07-16T23:35:48.009Z,3.40
2018-07-16T23:38:16.398Z,3.20
2018-07-16T23:40:44.765Z,3.00
2018-07-16T23:43:13.178Z,3.47
2018-07-16T23:45:41.590Z,3.63
2018-07-16T23:48:09.970Z,3.60
2018-07-16T23:50:38.337Z,3.53
2018-07-16T23:53:06.749Z,3.10
2018-07-16T23:55:35.118Z,3.57
2018-07-16T23:58:03.493Z,3.50
